createdAt,value
2023-01-15T00:01:34.762Z,99429.69
2023-01-15T00:04:03.662Z,99442.31
2023-01-15T00:06:30.724Z,99448.56
2023-01-15T00:08:57.145Z,99439.03
2023-01-15T00:11:23.639Z,99456.78
2023-01-15T00:13:50.541Z,99447.69
2023-01-15T00:16:18.859Z,99458.84
2023-01-15T00:18:50.368Z,99462.16
2023-01-15T00:21:16.698Z,99463.59
2023-01-15T00:24:01.788Z,99477.41
2023-01-15T00:26:48.180Z,99469.78
2023-01-15T00:29:14.767Z,99476.94
2023-01-15T00:31:41.212Z,99479.63
2023-01-15T00:34:07.658Z,99476.09
2023-01-15T00:36:34.325Z,99483.34
2023-01-15T00:39:01.123Z,99497.59
2023-01-15T00:41:34.259Z,99500.03
2023-01-15T00:44:00.887Z,99490.09
2023-01-15T00:46:29.003Z,99487.22
2023-01-15T00:48:55.360Z,99498.81
2023-01-15T00:51:21.681Z,99499.22
2023-01-15T00:53:48.025Z,99490.88
2023-01-15T00:56:14.407Z,99498.38
2023-01-15T00:58:40.845Z,99501.25
2023-01-15T01:01:07.193Z,99491.16
2023-01-15T01:03:33.692Z,99478.47
2023-01-15T01:06:01.564Z,99485.91
2023-01-15T01:08:28.453Z,99485.13
2023-01-15T01:11:05.218Z,99485.19
2023-01-15T01:13:31.782Z,99480.59
2023-01-15T01:15:58.216Z,99474.00
2023-01-15T01:18:24.570Z,99476.72
2023-01-15T01:20:51.009Z,99484.81
2023-01-15T01:23:17.736Z,99473.19
2023-01-15T01:25:44.026Z,99476.47
2023-01-15T01:28:10.489Z,99486.63
2023-01-15T01:30:37.726Z,99492.00
2023-01-15T01:33:04.480Z,99487.47
2023-01-15T01:35:30.784Z,99495.31
2023-01-15T01:37:57.155Z,99491.38
2023-01-15T01:40:23.733Z,99494.06
2023-01-15T01:42:50.261Z,99501.94
2023-01-15T01:45:25.863Z,99491.56
2023-01-15T01:47:55.223Z,99486.44
2023-01-15T01:50:21.881Z,99487.22
2023-01-15T01:52:52.220Z,99493.06
2023-01-15T01:55:20.625Z,99469.44
2023-01-15T01:57:47.780Z,99460.34
2023-01-15T02:00:15.233Z,99461.63
2023-01-15T02:02:43.989Z,99462.03
2023-01-15T02:05:12.367Z,99465.09
2023-01-15T02:07:40.160Z,99475.66
2023-01-15T02:10:06.654Z,99477.31
2023-01-15T02:12:35.637Z,99483.75
2023-01-15T02:15:16.084Z,99485.59
2023-01-15T02:18:04.541Z,99477.28
2023-01-15T02:21:06.293Z,99479.34
2023-01-15T02:23:44.345Z,99479.34
2023-01-15T02:26:10.626Z,99472.31
2023-01-15T02:28:39.357Z,99466.09
2023-01-15T02:31:08.416Z,99476.84
2023-01-15T02:33:40.680Z,99469.75
2023-01-15T02:36:08.864Z,99470.63
2023-01-15T02:38:37.436Z,99468.59
2023-01-15T02:41:05.382Z,99473.13
2023-01-15T02:43:34.994Z,99477.03
2023-01-15T02:46:03.175Z,99477.03
2023-01-15T02:48:32.666Z,99464.44
2023-01-15T02:51:02.551Z,99481.84
2023-01-15T02:53:30.785Z,99480.38
2023-01-15T02:56:05.261Z,99472.72
2023-01-15T02:58:34.582Z,99470.22
2023-01-15T03:01:04.885Z,99470.00
2023-01-15T03:03:39.362Z,99463.19
2023-01-15T03:06:10.718Z,99461.56
2023-01-15T03:08:37.235Z,99464.00
2023-01-15T03:11:07.937Z,99455.50
2023-01-15T03:13:43.544Z,99458.59
2023-01-15T03:16:34.961Z,99463.56
2023-01-15T03:19:07.561Z,99462.09
2023-01-15T03:21:56.316Z,99461.66
2023-01-15T03:24:43.649Z,99456.47
2023-01-15T03:27:10.543Z,99468.91
2023-01-15T03:29:42.748Z,99469.66
2023-01-15T03:32:09.573Z,99470.41
2023-01-15T03:34:45.129Z,99467.31
2023-01-15T03:37:11.766Z,99443.50
2023-01-15T03:39:38.738Z,99434.19
2023-01-15T03:42:17.410Z,99443.72
2023-01-15T03:44:53.213Z,99431.75
2023-01-15T03:47:29.701Z,99364.84
2023-01-15T03:50:11.405Z,99424.91
2023-01-15T03:52:40.441Z,99419.50
2023-01-15T03:55:12.058Z,99425.94
2023-01-15T03:57:45.852Z,99407.75
2023-01-15T04:00:15.288Z,99410.81
2023-01-15T04:02:42.783Z,99425.50
2023-01-15T04:05:09.261Z,99429.59
2023-01-15T04:07:35.662Z,99438.31
2023-01-15T04:10:01.988Z,99443.94
2023-01-15T04:12:28.790Z,99437.47
2023-01-15T04:14:55.165Z,99433.78
2023-01-15T04:17:21.483Z,99427.97
2023-01-15T04:19:47.802Z,99429.22
2023-01-15T04:22:14.157Z,99426.09
2023-01-15T04:24:40.512Z,99429.41
2023-01-15T04:27:06.907Z,99423.03
2023-01-15T04:29:33.384Z,99412.66
2023-01-15T04:31:59.701Z,99416.78
2023-01-15T04:34:27.141Z,99426.50
2023-01-15T04:36:54.074Z,99427.72
2023-01-15T04:39:20.541Z,99440.34
2023-01-15T04:42:05.543Z,99449.66
2023-01-15T04:44:35.365Z,99437.00
2023-01-15T04:47:01.749Z,99450.25
2023-01-15T04:49:28.130Z,99436.75
2023-01-15T04:51:54.571Z,99439.44
2023-01-15T04:54:22.427Z,99439.63
2023-01-15T04:56:50.579Z,99440.47
2023-01-15T04:59:18.193Z,99451.44
2023-01-15T05:02:01.954Z,99458.66
2023-01-15T05:04:30.186Z,99443.38
2023-01-15T05:06:56.542Z,99448.09
2023-01-15T05:09:22.875Z,99449.56
2023-01-15T05:11:49.211Z,99446.88
2023-01-15T05:14:15.592Z,99446.97
2023-01-15T05:16:41.970Z,99449.19
2023-01-15T05:19:10.229Z,99442.59
2023-01-15T05:21:39.729Z,99446.13
2023-01-15T05:24:08.636Z,99440.25
2023-01-15T05:26:35.383Z,99438.44
2023-01-15T05:29:01.957Z,99450.19
2023-01-15T05:31:28.582Z,99447.97
2023-01-15T05:33:55.411Z,99442.59
2023-01-15T05:36:23.030Z,99443.63
2023-01-15T05:38:49.454Z,99451.25
2023-01-15T05:41:36.017Z,99444.47
2023-01-15T05:44:04.995Z,99446.50
2023-01-15T05:46:31.354Z,99445.03
2023-01-15T05:49:01.983Z,99448.94
2023-01-15T05:51:29.248Z,99450.59
2023-01-15T05:53:56.785Z,99457.63
2023-01-15T05:56:23.575Z,99449.31
2023-01-15T05:58:50.085Z,99455.09
2023-01-15T06:01:16.448Z,99460.28
2023-01-15T06:03:42.863Z,99455.09
2023-01-15T06:06:16.955Z,99459.22
2023-01-15T06:08:43.731Z,99458.38
2023-01-15T06:11:11.253Z,99456.91
2023-01-15T06:13:39.300Z,99463.09
2023-01-15T06:16:06.530Z,99468.66
2023-01-15T06:18:33.514Z,99477.59
2023-01-15T06:21:07.286Z,99469.88
2023-01-15T06:23:36.689Z,99461.53
2023-01-15T06:26:04.335Z,99473.97
2023-01-15T06:28:30.685Z,99474.97
2023-01-15T06:30:57.006Z,99476.00
2023-01-15T06:33:23.673Z,99485.50
2023-01-15T06:35:50.244Z,99484.66
2023-01-15T06:38:16.611Z,99482.16
2023-01-15T06:40:42.997Z,99499.50
2023-01-15T06:43:31.138Z,99492.91
2023-01-15T06:46:16.271Z,99498.66
2023-01-15T06:48:43.190Z,99493.63
2023-01-15T06:51:09.533Z,99510.19
2023-01-15T06:53:35.916Z,99503.53
2023-01-15T06:56:02.299Z,99502.66
2023-01-15T06:58:28.596Z,99503.31
2023-01-15T07:00:55.782Z,99506.38
2023-01-15T07:03:23.028Z,99508.88
2023-01-15T07:05:49.604Z,99512.13
2023-01-15T07:08:16.064Z,99512.31
2023-01-15T07:10:42.439Z,99519.91
2023-01-15T07:13:11.941Z,99514.72
2023-01-15T07:15:39.006Z,99518.63
2023-01-15T07:18:05.440Z,99520.03
2023-01-15T07:20:31.918Z,99526.44
2023-01-15T07:22:58.338Z,99530.59
2023-01-15T07:25:24.689Z,99532.63
2023-01-15T07:27:51.013Z,99527.00
2023-01-15T07:30:17.400Z,99530.91
2023-01-15T07:32:43.881Z,99529.69
2023-01-15T07:35:10.337Z,99546.00
2023-01-15T07:37:37.810Z,99546.44
2023-01-15T07:40:04.466Z,99542.38
2023-01-15T07:42:57.099Z,99552.28
2023-01-15T07:45:42.339Z,99549.84
2023-01-15T07:48:28.099Z,99559.81
2023-01-15T07:50:54.474Z,99555.03
2023-01-15T07:53:20.986Z,99560.41
2023-01-15T07:55:47.363Z,99571.97
2023-01-15T07:58:13.794Z,99574.00
2023-01-15T08:00:41.888Z,99571.97
2023-01-15T08:03:09.161Z,99576.06
2023-01-15T08:05:35.575Z,99589.75
2023-01-15T08:08:01.896Z,99580.06
2023-01-15T08:10:28.833Z,99626.53
2023-01-15T08:13:14.157Z,99660.25
2023-01-15T08:15:41.220Z,99641.50
2023-01-15T08:18:07.794Z,99663.59
2023-01-15T08:20:34.681Z,99637.41
2023-01-15T08:23:01.292Z,99643.16
2023-01-15T08:25:27.875Z,99658.41
2023-01-15T08:27:54.376Z,99656.69
2023-01-15T08:30:22.052Z,99644.06
2023-01-15T08:32:48.399Z,99645.00
2023-01-15T08:35:14.980Z,99643.34
2023-01-15T08:37:41.991Z,99660.28
2023-01-15T08:40:09.121Z,99631.41
2023-01-15T08:42:35.526Z,99642.63
2023-01-15T08:45:01.964Z,99654.66
2023-01-15T08:47:28.391Z,99647.25
2023-01-15T08:49:54.975Z,99640.56
2023-01-15T08:52:21.295Z,99645.56
2023-01-15T08:54:47.627Z,99643.34
2023-01-15T08:57:13.912Z,99646.03
2023-01-15T08:59:42.972Z,99643.81
2023-01-15T09:02:14.219Z,99638.81
2023-01-15T09:04:40.709Z,99642.88
2023-01-15T09:07:07.181Z,99648.38
2023-01-15T09:09:33.990Z,99651.22
2023-01-15T09:12:00.291Z,99646.69
2023-01-15T09:14:55.946Z,99652.06
2023-01-15T09:17:13.133Z,99643.81
2023-01-15T09:19:39.447Z,99639.28
2023-01-15T09:22:05.786Z,99632.69
2023-01-15T09:24:32.145Z,99641.22
2023-01-15T09:26:58.469Z,99636.50
2023-01-15T09:29:24.807Z,99624.09
2023-01-15T09:31:51.146Z,99623.44
2023-01-15T09:34:17.501Z,99631.50
2023-01-15T09:36:50.873Z,99629.47
2023-01-15T09:39:17.288Z,99627.81
2023-01-15T09:42:05.094Z,99626.59
2023-01-15T09:45:01.456Z,99629.56
2023-01-15T09:47:33.188Z,99622.88
2023-01-15T09:50:11.708Z,99627.75
2023-01-15T09:52:38.024Z,99628.22
2023-01-15T09:55:08.014Z,99640.06
2023-01-15T09:57:35.452Z,99636.75
2023-01-15T10:00:03.848Z,99632.00
2023-01-15T10:02:37.985Z,99640.25
2023-01-15T10:05:09.222Z,99637.38
2023-01-15T10:07:58.477Z,99622.47
2023-01-15T10:10:59.183Z,99634.06
2023-01-15T10:13:37.785Z,99629.13
2023-01-15T10:16:04.388Z,99637.09
2023-01-15T10:18:30.864Z,99635.22
2023-01-15T10:21:08.112Z,99637.53
2023-01-15T10:23:43.838Z,99642.16
2023-01-15T10:26:18.122Z,99647.16
2023-01-15T10:28:47.363Z,99652.16
2023-01-15T10:31:19.214Z,99650.44
2023-01-15T10:34:04.387Z,99657.13
2023-01-15T10:36:30.664Z,99649.06
2023-01-15T10:39:01.778Z,99654.84
2023-01-15T10:41:37.260Z,99667.09
2023-01-15T10:44:39.167Z,99661.28
2023-01-15T10:47:11.265Z,99656.16
2023-01-15T10:49:37.722Z,99663.84
2023-01-15T10:52:07.726Z,99666.81
2023-01-15T10:54:38.982Z,99649.00
2023-01-15T10:57:20.431Z,99655.22
2023-01-15T11:00:00.167Z,99660.59
2023-01-15T11:02:26.670Z,99653.19
2023-01-15T11:04:54.250Z,99659.00
2023-01-15T11:07:34.138Z,99665.22
2023-01-15T11:10:02.400Z,99669.84
2023-01-15T11:12:48.044Z,99677.53
2023-01-15T11:15:34.171Z,99665.34
2023-01-15T11:18:20.366Z,99664.63
2023-01-15T11:20:47.857Z,99667.16
2023-01-15T11:23:21.372Z,99657.25
2023-01-15T11:25:52.330Z,99674.59
2023-01-15T11:28:21.312Z,99670.50
2023-01-15T11:30:54.810Z,99667.50
2023-01-15T11:33:25.484Z,99662.25
2023-01-15T11:36:03.722Z,99668.00
2023-01-15T11:38:31.449Z,99663.06
2023-01-15T11:41:02.059Z,99679.22
2023-01-15T11:43:48.972Z,99662.25
2023-01-15T11:46:50.815Z,99656.38
2023-01-15T11:49:37.320Z,99651.56
2023-01-15T11:52:06.205Z,99654.06
2023-01-15T11:54:33.273Z,99661.66
2023-01-15T11:56:59.635Z,99660.25
2023-01-15T11:59:26.017Z,99654.91
2023-01-15T12:01:57.739Z,99658.06
2023-01-15T12:04:30.749Z,99642.81
2023-01-15T12:06:57.724Z,99649.19
2023-01-15T12:09:36.122Z,99635.72
2023-01-15T12:12:08.477Z,99628.47
2023-01-15T12:14:34.838Z,99625.56
2023-01-15T12:17:07.981Z,99614.75
2023-01-15T12:19:34.450Z,99602.22
2023-01-15T12:22:21.060Z,99611.13
2023-01-15T12:24:50.313Z,99617.09
2023-01-15T12:27:29.745Z,99594.31
2023-01-15T12:30:02.508Z,99604.22
2023-01-15T12:32:40.280Z,99612.09
2023-01-15T12:35:15.653Z,99597.81
2023-01-15T12:37:48.339Z,99606.34
2023-01-15T12:40:14.749Z,99614.06
2023-01-15T12:43:01.809Z,99612.50
2023-01-15T12:45:31.574Z,99612.31
2023-01-15T12:48:11.792Z,99604.56
2023-01-15T12:50:38.365Z,99588.41
2023-01-15T12:53:23.509Z,99619.50
2023-01-15T12:56:08.713Z,99598.22
2023-01-15T12:58:49.435Z,99605.63
2023-01-15T13:01:18.963Z,99607.31
2023-01-15T13:03:51.504Z,99608.97
2023-01-15T13:06:19.621Z,99630.13
2023-01-15T13:08:51.508Z,99620.22
2023-01-15T13:11:17.960Z,99618.19
2023-01-15T13:13:57.783Z,99626.94
2023-01-15T13:16:28.957Z,99627.81
2023-01-15T13:19:04.482Z,99623.25
2023-01-15T13:21:32.670Z,99623.06
2023-01-15T13:24:14.012Z,99624.94
2023-01-15T13:26:41.886Z,99622.75
2023-01-15T13:29:26.816Z,99622.72
2023-01-15T13:31:56.331Z,99618.19
2023-01-15T13:34:31.972Z,99615.69
2023-01-15T13:37:02.734Z,99621.88
2023-01-15T13:39:34.644Z,99617.16
2023-01-15T13:42:20.264Z,99613.63
2023-01-15T13:44:48.210Z,99610.72
2023-01-15T13:47:20.437Z,99629.19
2023-01-15T13:49:49.013Z,99640.34
2023-01-15T13:52:24.506Z,99635.34
2023-01-15T13:54:51.749Z,99637.84
2023-01-15T13:57:26.065Z,99644.72
2023-01-15T13:59:52.429Z,99649.50
2023-01-15T14:02:25.062Z,99650.97
2023-01-15T14:04:51.705Z,99649.94
2023-01-15T14:07:19.016Z,99657.63
2023-01-15T14:09:45.411Z,99659.94
2023-01-15T14:12:25.026Z,99672.56
2023-01-15T14:15:00.512Z,99672.63
2023-01-15T14:17:45.838Z,99670.75
2023-01-15T14:20:33.167Z,99665.94
2023-01-15T14:22:59.464Z,99681.69
2023-01-15T14:25:44.812Z,99676.50
2023-01-15T14:28:14.191Z,99680.63
2023-01-15T14:30:40.584Z,99680.63
2023-01-15T14:33:16.031Z,99682.47
2023-01-15T14:35:45.092Z,99693.25
2023-01-15T14:38:15.215Z,99687.25
2023-01-15T14:40:51.561Z,99696.16
2023-01-15T14:43:19.957Z,99691.97
2023-01-15T14:45:48.581Z,99696.16
2023-01-15T14:48:30.273Z,99694.09
2023-01-15T14:51:22.508Z,99697.16
2023-01-15T14:53:50.977Z,99711.84
2023-01-15T14:56:20.782Z,99725.97
2023-01-15T14:58:59.679Z,99722.63
2023-01-15T15:01:33.568Z,99723.47
2023-01-15T15:04:06.740Z,99721.16
2023-01-15T15:06:37.980Z,99726.34
2023-01-15T15:09:05.221Z,99722.81
2023-01-15T15:12:05.263Z,99725.97
2023-01-15T15:14:33.174Z,99723.00
2023-01-15T15:17:00.889Z,99713.28
2023-01-15T15:19:36.618Z,99734.63
2023-01-15T15:22:04.502Z,99726.28
2023-01-15T15:24:35.596Z,99730.44
2023-01-15T15:27:18.178Z,99736.47
2023-01-15T15:29:45.049Z,99727.13
2023-01-15T15:32:15.269Z,99730.00
2023-01-15T15:34:43.427Z,99724.53
2023-01-15T15:37:14.423Z,99737.00
2023-01-15T15:39:45.124Z,99723.53
2023-01-15T15:42:36.460Z,99719.16
2023-01-15T15:45:25.266Z,99727.03
2023-01-15T15:48:34.312Z,99730.78
2023-01-15T15:51:00.880Z,99735.78
2023-01-15T15:53:27.285Z,99722.13
2023-01-15T15:55:54.927Z,99713.22
2023-01-15T15:58:35.948Z,99710.09
2023-01-15T16:01:02.567Z,99724.53
2023-01-15T16:03:32.651Z,99715.84
2023-01-15T16:06:00.789Z,99726.44
2023-01-15T16:08:27.689Z,99722.09
2023-01-15T16:10:55.215Z,99725.59
2023-01-15T16:13:24.796Z,99728.28
2023-01-15T16:15:55.892Z,99731.63
2023-01-15T16:18:24.923Z,99723.09
2023-01-15T16:20:51.546Z,99723.94
2023-01-15T16:23:22.389Z,99722.88
2023-01-15T16:26:15.092Z,99719.78
2023-01-15T16:28:43.917Z,99713.53
2023-01-15T16:31:10.928Z,99707.13
2023-01-15T16:33:38.187Z,99713.53
2023-01-15T16:36:06.165Z,99711.25
2023-01-15T16:38:33.588Z,99711.69
2023-01-15T16:41:01.323Z,99714.19
2023-01-15T16:43:29.102Z,99710.84
2023-01-15T16:45:55.422Z,99713.72
2023-01-15T16:48:24.722Z,99713.28
2023-01-15T16:50:59.912Z,99705.44
2023-01-15T16:53:49.955Z,99713.69
2023-01-15T16:56:34.676Z,99706.25
2023-01-15T16:59:00.989Z,99705.19
2023-01-15T17:01:37.582Z,99705.84
2023-01-15T17:04:20.900Z,99701.31
2023-01-15T17:07:04.905Z,99710.41
2023-01-15T17:09:34.095Z,99711.25
2023-01-15T17:12:07.609Z,99706.03
2023-01-15T17:14:34.008Z,99704.97
2023-01-15T17:17:19.195Z,99703.94
2023-01-15T17:19:45.702Z,99700.81
2023-01-15T17:22:15.188Z,99698.31
2023-01-15T17:24:55.581Z,99701.44
2023-01-15T17:27:22.506Z,99707.38
2023-01-15T17:29:49.059Z,99712.75
2023-01-15T17:32:44.741Z,99715.47
2023-01-15T17:35:24.648Z,99713.59
2023-01-15T17:37:51.160Z,99709.88
2023-01-15T17:40:17.687Z,99718.16
2023-01-15T17:42:44.172Z,99721.50
2023-01-15T17:45:17.162Z,99714.88
2023-01-15T17:47:43.645Z,99716.09
2023-01-15T17:50:10.561Z,99709.13
2023-01-15T17:52:37.117Z,99707.66
2023-01-15T17:55:22.538Z,99717.00
2023-01-15T17:58:07.395Z,99727.16
2023-01-15T18:00:52.605Z,99715.78
2023-01-15T18:03:39.899Z,99719.06
2023-01-15T18:06:09.681Z,99718.28
2023-01-15T18:08:36.579Z,99723.28
2023-01-15T18:11:02.977Z,99717.66
2023-01-15T18:13:29.336Z,99677.34
2023-01-15T18:15:55.719Z,99725.84
2023-01-15T18:18:22.119Z,99722.78
2023-01-15T18:20:48.517Z,99721.75
2023-01-15T18:23:14.948Z,99717.88
2023-01-15T18:25:46.119Z,99717.28
2023-01-15T18:28:13.202Z,99714.97
2023-01-15T18:30:39.709Z,99716.63
2023-01-15T18:33:06.106Z,99714.13
2023-01-15T18:35:32.702Z,99717.66
2023-01-15T18:37:59.191Z,99719.97
2023-01-15T18:40:33.724Z,99716.63
2023-01-15T18:43:18.907Z,99718.66
2023-01-15T18:46:07.282Z,99715.06
2023-01-15T18:48:33.995Z,99714.00
2023-01-15T18:51:10.007Z,99719.84
2023-01-15T18:53:36.289Z,99725.78
2023-01-15T18:56:05.905Z,99719.19
2023-01-15T18:58:32.264Z,99715.47
2023-01-15T19:00:58.679Z,99710.50
2023-01-15T19:03:26.111Z,99710.91
2023-01-15T19:05:52.529Z,99705.91
2023-01-15T19:08:19.586Z,99708.19
2023-01-15T19:10:45.925Z,99709.84
2023-01-15T19:13:17.170Z,99705.59
2023-01-15T19:16:01.974Z,99712.25
2023-01-15T19:18:52.282Z,99702.53
2023-01-15T19:21:20.149Z,99695.69
2023-01-15T19:23:51.167Z,99705.03
2023-01-15T19:26:17.479Z,99693.84
2023-01-15T19:28:43.884Z,99690.78
2023-01-15T19:31:29.044Z,99694.94
2023-01-15T19:34:13.292Z,99693.94
2023-01-15T19:36:44.228Z,99685.13
2023-01-15T19:39:10.562Z,99685.97
2023-01-15T19:41:55.693Z,99686.59
2023-01-15T19:44:40.451Z,99677.91
2023-01-15T19:47:30.295Z,99675.03
2023-01-15T19:50:15.486Z,99665.88
2023-01-15T19:52:41.835Z,99662.16
2023-01-15T19:55:10.737Z,99655.75
2023-01-15T19:57:37.755Z,99651.78
2023-01-15T20:00:05.563Z,99645.13
2023-01-15T20:02:36.524Z,99642.06
2023-01-15T20:05:04.371Z,99646.41
2023-01-15T20:07:30.845Z,99636.47
2023-01-15T20:09:57.538Z,99638.34
2023-01-15T20:12:42.836Z,99628.16
2023-01-15T20:15:09.580Z,99628.59
2023-01-15T20:17:35.952Z,99615.09
2023-01-15T20:20:02.627Z,99623.34
2023-01-15T20:22:29.739Z,99617.34
2023-01-15T20:24:56.197Z,99619.22
2023-01-15T20:27:23.015Z,99604.84
2023-01-15T20:29:55.526Z,99592.22
2023-01-15T20:32:21.940Z,99580.44
2023-01-15T20:34:48.467Z,99577.75
2023-01-15T20:37:14.869Z,99575.06
2023-01-15T20:39:41.215Z,99565.16
2023-01-15T20:42:26.251Z,99562.88
2023-01-15T20:44:55.706Z,99556.44
2023-01-15T20:47:42.017Z,99557.91
2023-01-15T20:50:09.305Z,99546.31
2023-01-15T20:52:36.529Z,99547.56
2023-01-15T20:55:03.817Z,99550.25
2023-01-15T20:57:33.228Z,99542.56
2023-01-15T20:59:59.606Z,99541.53
2023-01-15T21:02:25.976Z,99538.25
2023-01-15T21:04:52.276Z,99541.56
2023-01-15T21:07:18.710Z,99535.56
2023-01-15T21:09:45.094Z,99521.66
2023-01-15T21:12:14.029Z,99515.31
2023-01-15T21:14:40.346Z,99515.97
2023-01-15T21:17:06.978Z,99515.78
2023-01-15T21:19:33.292Z,99514.75
2023-01-15T21:21:59.625Z,99497.41
2023-01-15T21:24:26.190Z,99495.75
2023-01-15T21:26:52.531Z,99486.66
2023-01-15T21:29:18.872Z,99482.94
2023-01-15T21:31:45.493Z,99481.28
2023-01-15T21:34:12.032Z,99469.66
2023-01-15T21:36:38.430Z,99478.13
2023-01-15T21:39:04.891Z,99475.44
2023-01-15T21:41:50.045Z,99465.88
2023-01-15T21:44:33.244Z,99449.75
2023-01-15T21:47:00.444Z,99445.22
2023-01-15T21:49:30.317Z,99440.63
2023-01-15T21:51:56.699Z,99442.69
2023-01-15T21:54:23.184Z,99439.56
2023-01-15T21:56:49.558Z,99439.75
2023-01-15T21:59:15.980Z,99426.09
2023-01-15T22:01:42.457Z,99434.75
2023-01-15T22:04:08.957Z,99420.91
2023-01-15T22:06:37.238Z,99423.53
2023-01-15T22:09:04.681Z,99429.72
2023-01-15T22:11:46.547Z,99422.25
2023-01-15T22:14:17.659Z,99427.84
2023-01-15T22:16:44.760Z,99425.97
2023-01-15T22:19:11.939Z,99420.16
2023-01-15T22:21:38.339Z,99418.03
2023-01-15T22:24:05.130Z,99415.53
2023-01-15T22:26:31.970Z,99407.78
2023-01-15T22:28:59.116Z,99405.28
2023-01-15T22:31:26.517Z,99406.97
2023-01-15T22:33:53.059Z,99404.09
2023-01-15T22:36:23.077Z,99395.75
2023-01-15T22:38:54.541Z,99383.41
2023-01-15T22:41:39.787Z,99385.03
2023-01-15T22:44:07.013Z,99374.06
2023-01-15T22:46:33.781Z,99377.22
2023-01-15T22:49:00.070Z,99371.84
2023-01-15T22:51:26.420Z,99369.34
2023-01-15T22:53:53.381Z,99370.53
2023-01-15T22:56:19.978Z,99364.56
2023-01-15T22:58:46.281Z,99361.59
2023-01-15T23:01:12.760Z,99354.41
2023-01-15T23:03:39.212Z,99357.28
2023-01-15T23:06:06.453Z,99351.50
2023-01-15T23:08:35.239Z,99347.56
2023-01-15T23:11:02.687Z,99350.06
2023-01-15T23:13:32.132Z,99341.78
2023-01-15T23:15:59.323Z,99334.13
2023-01-15T23:18:25.798Z,99319.59
2023-01-15T23:20:52.135Z,99313.00
2023-01-15T23:23:18.596Z,99319.66
2023-01-15T23:25:44.942Z,99307.63
2023-01-15T23:28:11.292Z,99300.56
2023-01-15T23:30:37.665Z,99299.09
2023-01-15T23:33:04.060Z,99286.06
2023-01-15T23:35:30.407Z,99288.28
2023-01-15T23:37:56.728Z,99292.03
2023-01-15T23:40:23.043Z,99274.47
2023-01-15T23:43:08.151Z,99274.06
2023-01-15T23:45:56.552Z,99263.97
2023-01-15T23:48:22.993Z,99264.97
2023-01-15T23:50:49.265Z,99268.69
2023-01-15T23:53:15.583Z,99262.84
2023-01-15T23:55:41.889Z,99254.34
2023-01-15T23:58:08.299Z,99256.03
